Impacts TAF Board
For situational awareness. Not to be used for flight planning purposes.
IDs:

KEUG - Eugene/Mahlon Sweet, OR, US

Issued at 0520 UTC 22 Oct 2021
Updated at 0634 UTC 22 Oct 2021
Potential Impact None Slight Moderate High
Time0554Z 22/07Z 22/08Z 22/09Z 22/10Z 22/11Z 22/12Z 22/13Z 22/14Z 22/15Z 22/16Z 22/17Z 22/18Z 22/19Z>>
Type OBS PRVL PRVL PRVL PRVL PRVL PRVL PRVL PRVL PRVL PRVL PRVL PRVL PRVL
VIS 10 >6 >6 >6 >6 >6 >6 >6 >6 >6 >6 >6 >6 >6
CIG 55 40 40 40 40 40 40 40 40 40 40 40 40 40
Cover OVC OVC OVC BKN BKN BKN BKN BKN BKN BKN BKN BKN BKN BKN
FltCat VFR VFR VFR VFR VFR VFR VFR VFR VFR VFR VFR VFR VFR VFR
WX -RA -RA -RA -SHRA -SHRA -SHRA -SHRA -SHRA -SHRA -SHRA -SHRA -SHRA -SHRA -SHRA
WDir 140 150 150 170 170 170 170 170 170 170 170 170 170 170
WSpd 12 7 7 7 7 7 7 7 7 7 7 7 7 7
WGst -- -- -- -- -- -- -- -- -- -- -- -- -- --
Raw TAF
KEUG 220520Z 2206/2306 15007KT P6SM -RA SCT025 BKN040 OVC060
  FM220900 17007KT P6SM -SHRA BKN040 BKN060
  FM222000 20008KT P6SM VCSH SCT035 BKN050
  FM230400 12007KT P6SM -RA BKN035 OVC045


Raw METAR
KEUG 220554Z 14012KT 10SM -RA SCT032 BKN055 OVC085 12/11 A2987 RMK AO2 SLP113 P0003 60053 T01220111 10150 20122 53007 $
KEUG 220454Z 16008KT 10SM -RA FEW022 SCT055 OVC080 13/12 A2987 RMK AO2 PRESRR SLP113 P0003 T01280117 $
KEUG 220354Z 12007KT 10SM -RA FEW020 BKN065 OVC075 12/11 A2984 RMK AO2 SLP105 P0006 T01220111 $

METAR Board
Radar Display
Forecast Discussion
For situational awareness. Not to be used for flight planning purposes.